Aeroporto :
LOGIN :

Iscrizione | Disclaimer

   EN    FR    IT 

 










Sommario :    VFR   VFR Marginale   IFR   IFR Intensivo   IFR Molto Intensivo
Visibilità : 
Base nubi : 
>= 8 km
>= 3000ft
5 / 8 km
1000 / 3000 ft
1500m / 5 km
500 / 1000 ft
800 / 1500m
200 / 500 ft
< 800m
< 200 ft
Simboli :   Temporali  Nebbia  Neve Forte  Precipitazioni Forti  Vento > 20 kt
SIGMETs :   Varie  Temporali  Ghiacco  Turbolenza  Onda orograficha  Ceneri Vulcaniche






- Altitudine del aeroporto : 741 ft
- Codice IATA : JKG


ESGJ - Jönköping

ULTIMO METAR :
  • 291350Z 06002KT 9000 SCT009 BKN032 09/08 Q1004

METARs OBSOLETI :
  • 291320Z 00000KT 9000 SCT006 BKN030 09/08 Q1004
  • 291250Z 00000KT 9000 SCT006 BKN030 09/08 Q1004 REDZ
  • 291220Z 12002KT 9999 FEW006 BKN040 09/08 Q1004
  • 291150Z 00000KT 9000 -SHRA FEW009 BKN019CB 09/08 Q1004
  • 291120Z 00000KT 8000 -SHRA SCT005 BKN015 09/08 Q1004

TAF TAF ESGJ
Valido dal 29 a 12 ore il 29 a 21 ore UTC


291130Z 2912/2921 16004KT 9000 SCT012 BKN030
PROB40 2912/2916 4000 SHRA BKN008 BKN025CB



MetMap, La meteo Aeronautica in un colpo d'occhio ! - Copyright ORBIFLY Dicembre 2007 - Disclaimer

ORBIFLY MET'MAP TEAM :

Programmazione e sviluppo : Alexandra Zaïnal
Concezione : Baudouin d'Aumeries
Aiuto per la programmazione : Marc-Olivier Méhu
Supporto tecnico e logistico : Manuel Goepfert
Aiuto per la traduzione : Arnaldo La Scala

Contatto : metmap@orbifly.com




FONTI E CREDITI :

   NOAA